createdAt,value
2023-01-21T00:01:17.252Z,96093.56
2023-01-21T00:03:47.804Z,95957.59
2023-01-21T00:06:20.327Z,95868.50
2023-01-21T00:08:48.032Z,96091.75
2023-01-21T00:11:16.753Z,96078.03
2023-01-21T00:13:47.904Z,96078.22
2023-01-21T00:16:17.087Z,96095.31
2023-01-21T00:18:47.374Z,96084.97
2023-01-21T00:21:15.639Z,95876.38
2023-01-21T00:23:43.395Z,96095.56
2023-01-21T00:26:12.008Z,96080.78
2023-01-21T00:28:41.641Z,96101.69
2023-01-21T00:31:09.936Z,96089.97
2023-01-21T00:33:39.931Z,96044.56
2023-01-21T00:36:10.036Z,96087.16
2023-01-21T00:38:38.065Z,96093.16
2023-01-21T00:41:08.034Z,96096.31
2023-01-21T00:43:35.936Z,96092.34
2023-01-21T00:46:03.961Z,96092.56
2023-01-21T00:48:31.663Z,96097.91
2023-01-21T00:51:01.363Z,96034.59
2023-01-21T00:53:29.720Z,96106.47
2023-01-21T00:56:00.034Z,96099.09
2023-01-21T00:58:28.253Z,96106.69
2023-01-21T01:01:01.720Z,96116.63
2023-01-21T01:03:29.446Z,96113.44
2023-01-21T01:05:57.060Z,96076.41
2023-01-21T01:08:26.095Z,96005.72
2023-01-21T01:10:55.354Z,96120.81
2023-01-21T01:13:22.992Z,96123.00
2023-01-21T01:15:52.455Z,96116.25
2023-01-21T01:18:20.124Z,96082.16
2023-01-21T01:20:47.766Z,96083.38
2023-01-21T01:23:15.425Z,96124.19
2023-01-21T01:25:44.438Z,96122.38
2023-01-21T01:28:12.106Z,96089.72
2023-01-21T01:30:39.766Z,96120.41
2023-01-21T01:33:07.432Z,96089.91
2023-01-21T01:35:35.068Z,96127.53
2023-01-21T01:38:07.878Z,96105.88
2023-01-21T01:40:36.014Z,96124.38
2023-01-21T01:43:11.251Z,96037.28
2023-01-21T01:45:38.847Z,96131.94
2023-01-21T01:48:06.689Z,96125.16
2023-01-21T01:50:38.845Z,96057.81
2023-01-21T01:53:08.093Z,96001.88
2023-01-21T01:55:38.047Z,96130.09
2023-01-21T01:58:09.512Z,96133.34
2023-01-21T02:00:37.252Z,96156.81
2023-01-21T02:03:23.060Z,96142.06
2023-01-21T02:05:51.845Z,96135.47
2023-01-21T02:08:20.694Z,96120.13
2023-01-21T02:10:48.363Z,96129.31
2023-01-21T02:13:17.838Z,96085.41
2023-01-21T02:15:59.416Z,96132.66
2023-01-21T02:18:38.367Z,96135.06
2023-01-21T02:21:36.838Z,96083.47
2023-01-21T02:24:36.355Z,96127.13
2023-01-21T02:27:40.093Z,96134.88
2023-01-21T02:30:42.132Z,96136.06
2023-01-21T02:33:45.612Z,96136.63
2023-01-21T02:36:25.992Z,96140.22
2023-01-21T02:39:02.669Z,96110.53
2023-01-21T02:41:37.923Z,96133.44
2023-01-21T02:44:14.233Z,96128.47
2023-01-21T02:46:46.352Z,96140.00
2023-01-21T02:49:22.157Z,96007.88
2023-01-21T02:51:50.237Z,96020.28
2023-01-21T02:54:51.689Z,96141.59
2023-01-21T02:57:28.536Z,96135.47
2023-01-21T02:59:57.843Z,96131.69
2023-01-21T03:02:41.838Z,96134.88
2023-01-21T03:05:18.518Z,96134.88
2023-01-21T03:07:51.280Z,96138.84
2023-01-21T03:10:25.056Z,96135.63
2023-01-21T03:13:00.210Z,96097.38
2023-01-21T03:15:49.441Z,96130.06
2023-01-21T03:18:23.894Z,96134.66
2023-01-21T03:20:57.291Z,96138.63
2023-01-21T03:23:29.540Z,96061.38
2023-01-21T03:26:01.195Z,96132.09
2023-01-21T03:28:33.826Z,96131.91
2023-01-21T03:31:05.728Z,96132.28
2023-01-21T03:33:38.693Z,96125.13
2023-01-21T03:36:14.111Z,96129.09
2023-01-21T03:38:48.457Z,96127.31
2023-01-21T03:41:22.361Z,96127.28
2023-01-21T03:43:50.029Z,95961.91
2023-01-21T03:46:23.507Z,96122.91
2023-01-21T03:48:55.864Z,96119.69
2023-01-21T03:51:37.573Z,96099.81
2023-01-21T03:54:05.432Z,96123.72
2023-01-21T03:56:33.069Z,96121.31
2023-01-21T03:59:00.698Z,96121.31
2023-01-21T04:01:28.297Z,96032.31
2023-01-21T04:03:55.963Z,96121.50
2023-01-21T04:06:25.139Z,96119.50
2023-01-21T04:08:52.821Z,96117.34
2023-01-21T04:11:20.455Z,96120.53
2023-01-21T04:13:48.083Z,96112.16
2023-01-21T04:16:15.713Z,96126.47
2023-01-21T04:18:43.364Z,96120.69
2023-01-21T04:21:11.144Z,95977.03
2023-01-21T04:23:40.155Z,96032.88
2023-01-21T04:26:08.544Z,96119.50
2023-01-21T04:28:36.282Z,96134.84
2023-01-21T04:31:04.005Z,96114.69
2023-01-21T04:33:31.695Z,96129.88
2023-01-21T04:35:59.812Z,96131.03
2023-01-21T04:38:28.179Z,96127.69
2023-01-21T04:40:57.153Z,96128.28
2023-01-21T04:43:24.815Z,96130.06
2023-01-21T04:45:52.509Z,96097.00
2023-01-21T04:48:20.164Z,96131.06
2023-01-21T04:50:48.052Z,95999.78
2023-01-21T04:53:15.708Z,96009.72
2023-01-21T04:55:43.364Z,96145.25
2023-01-21T04:58:12.299Z,95991.38
2023-01-21T05:00:39.946Z,96148.38
2023-01-21T05:03:07.588Z,96155.47
2023-01-21T05:05:35.324Z,96151.56
2023-01-21T05:08:02.942Z,96148.56
2023-01-21T05:10:30.590Z,96134.38
2023-01-21T05:12:58.210Z,96145.53
2023-01-21T05:15:27.287Z,96138.78
2023-01-21T05:17:54.924Z,96043.66
2023-01-21T05:20:22.565Z,96145.88
2023-01-21T05:22:50.229Z,96146.06
2023-01-21T05:25:18.201Z,96146.09
2023-01-21T05:27:52.142Z,96135.94
2023-01-21T05:30:19.864Z,96144.09
2023-01-21T05:32:52.563Z,96043.09
2023-01-21T05:35:21.176Z,96136.94
2023-01-21T05:37:48.829Z,96036.63
2023-01-21T05:40:17.784Z,96140.09
2023-01-21T05:42:45.550Z,95996.41
2023-01-21T05:45:13.440Z,96139.06
2023-01-21T05:47:41.234Z,96135.88
2023-01-21T05:50:12.153Z,96143.63
2023-01-21T05:52:40.133Z,96153.34
2023-01-21T05:55:08.519Z,96150.16
2023-01-21T05:57:36.176Z,96134.16
2023-01-21T06:00:04.887Z,96144.88
2023-01-21T06:02:32.616Z,96132.53
2023-01-21T06:05:00.340Z,96148.84
2023-01-21T06:07:29.318Z,96119.56
2023-01-21T06:09:56.947Z,96072.34
2023-01-21T06:12:24.941Z,96139.34
2023-01-21T06:14:52.665Z,96150.22
2023-01-21T06:17:20.273Z,96158.53
2023-01-21T06:19:49.104Z,96153.56
2023-01-21T06:22:17.573Z,96150.47
2023-01-21T06:24:46.701Z,96016.72
2023-01-21T06:27:14.400Z,96167.03
2023-01-21T06:29:42.019Z,96166.50
2023-01-21T06:32:09.669Z,96171.53
2023-01-21T06:34:37.395Z,96174.84
2023-01-21T06:37:05.125Z,96155.63
2023-01-21T06:39:32.824Z,95970.88
2023-01-21T06:42:01.841Z,95998.22
2023-01-21T06:44:29.502Z,96098.91
2023-01-21T06:47:01.214Z,96172.50
2023-01-21T06:49:29.225Z,96174.09
2023-01-21T06:51:57.312Z,96185.00
2023-01-21T06:54:25.091Z,96177.59
2023-01-21T06:56:52.795Z,96130.31
2023-01-21T06:59:25.998Z,96179.84
2023-01-21T07:01:53.971Z,96176.72
2023-01-21T07:04:21.690Z,96186.16
2023-01-21T07:06:49.785Z,96168.88
2023-01-21T07:09:17.466Z,96177.66
2023-01-21T07:11:45.132Z,96124.97
2023-01-21T07:14:12.949Z,96189.50
2023-01-21T07:16:42.998Z,96187.44
2023-01-21T07:19:14.438Z,96195.16
2023-01-21T07:21:42.241Z,96172.56
2023-01-21T07:24:09.972Z,96166.56
2023-01-21T07:26:38.208Z,96196.69
2023-01-21T07:29:06.634Z,96190.78
2023-01-21T07:31:34.971Z,96232.19
2023-01-21T07:34:04.170Z,96214.50
2023-01-21T07:36:31.990Z,96220.94
2023-01-21T07:38:59.788Z,96210.69
2023-01-21T07:41:27.530Z,96203.81
2023-01-21T07:43:55.194Z,96209.47
2023-01-21T07:46:23.970Z,96221.88
2023-01-21T07:48:52.723Z,96202.88
2023-01-21T07:51:24.291Z,96147.31
2023-01-21T07:53:51.973Z,96199.03
2023-01-21T07:56:20.320Z,96210.84
2023-01-21T07:58:47.960Z,96217.31
2023-01-21T08:01:15.586Z,96132.25
2023-01-21T08:03:43.257Z,96199.88
2023-01-21T08:06:10.942Z,96216.28
2023-01-21T08:08:39.953Z,96111.34
2023-01-21T08:11:07.619Z,96207.59
2023-01-21T08:13:35.260Z,96109.19
2023-01-21T08:16:02.946Z,96201.72
2023-01-21T08:18:30.648Z,96137.53
2023-01-21T08:20:59.971Z,96214.91
2023-01-21T08:23:27.925Z,96227.47
2023-01-21T08:25:56.868Z,96221.50
2023-01-21T08:28:24.555Z,96224.06
2023-01-21T08:30:52.538Z,96126.13
2023-01-21T08:33:20.401Z,96222.69
2023-01-21T08:35:48.051Z,96179.97
2023-01-21T08:38:15.742Z,96206.31
2023-01-21T08:40:43.432Z,96223.59
2023-01-21T08:43:12.408Z,96193.63
2023-01-21T08:45:40.060Z,96218.53
2023-01-21T08:48:08.113Z,96199.75
2023-01-21T08:50:35.737Z,96221.44
2023-01-21T08:53:03.376Z,96232.91
2023-01-21T08:55:31.028Z,96234.69
2023-01-21T08:57:59.489Z,96237.47
2023-01-21T09:00:28.845Z,96221.66
2023-01-21T09:02:56.464Z,96240.59
2023-01-21T09:05:24.074Z,96243.00
2023-01-21T09:07:51.746Z,96233.34
2023-01-21T09:10:41.629Z,96242.00
2023-01-21T09:13:10.850Z,96249.31
2023-01-21T09:15:40.884Z,96253.44
2023-01-21T09:18:08.577Z,96243.09
2023-01-21T09:20:36.930Z,96127.03
2023-01-21T09:23:24.018Z,96242.03
2023-01-21T09:25:52.381Z,96224.13
2023-01-21T09:28:20.849Z,96249.66
2023-01-21T09:30:49.992Z,96131.50
2023-01-21T09:33:17.824Z,96238.41
2023-01-21T09:35:45.465Z,96231.25
2023-01-21T09:38:13.741Z,96214.09
2023-01-21T09:40:46.172Z,96003.69
2023-01-21T09:43:20.639Z,96205.13
2023-01-21T09:45:52.156Z,96162.72
2023-01-21T09:48:28.633Z,96238.13
2023-01-21T09:50:59.292Z,96240.56
2023-01-21T09:53:32.636Z,96220.84
2023-01-21T09:56:03.532Z,96241.00
2023-01-21T09:58:37.174Z,96187.91
2023-01-21T10:01:12.972Z,96243.16
2023-01-21T10:03:47.105Z,96241.97
2023-01-21T10:06:35.107Z,96222.38
2023-01-21T10:09:35.651Z,96228.00
2023-01-21T10:12:32.201Z,96242.31
2023-01-21T10:15:34.104Z,96237.97
2023-01-21T10:18:07.599Z,96238.44
2023-01-21T10:20:41.296Z,96233.00
2023-01-21T10:23:17.514Z,96231.25
2023-01-21T10:25:49.715Z,96237.63
2023-01-21T10:28:22.479Z,96234.03
2023-01-21T10:30:52.717Z,96232.50
2023-01-21T10:33:23.881Z,96250.56
2023-01-21T10:36:04.517Z,96212.84
2023-01-21T10:38:39.726Z,96194.13
2023-01-21T10:41:22.204Z,96237.59
2023-01-21T10:43:55.664Z,96230.63
2023-01-21T10:46:46.595Z,96236.44
2023-01-21T10:49:26.600Z,96230.06
2023-01-21T10:52:01.661Z,96232.47
2023-01-21T10:54:37.785Z,96234.63
2023-01-21T10:57:17.848Z,96226.88
2023-01-21T10:59:46.141Z,96101.88
2023-01-21T11:02:24.825Z,96224.50
2023-01-21T11:04:54.170Z,96213.50
2023-01-21T11:07:23.401Z,96205.56
2023-01-21T11:09:52.724Z,96216.53
2023-01-21T11:12:22.232Z,96196.56
2023-01-21T11:14:54.761Z,96214.75
2023-01-21T11:17:34.193Z,96189.88
2023-01-21T11:20:07.779Z,96211.41
2023-01-21T11:22:45.616Z,96206.59
2023-01-21T11:25:26.633Z,96221.94
2023-01-21T11:27:54.309Z,96211.38
2023-01-21T11:30:49.547Z,96153.16
2023-01-21T11:33:26.738Z,96208.03
2023-01-21T11:35:58.282Z,96204.22
2023-01-21T11:38:33.447Z,96196.88
2023-01-21T11:41:03.762Z,96215.56
2023-01-21T11:43:37.203Z,96167.56
2023-01-21T11:46:28.769Z,96196.50
2023-01-21T11:48:57.885Z,96193.50
2023-01-21T11:51:26.973Z,95973.59
2023-01-21T11:54:08.985Z,96136.09
2023-01-21T11:56:37.428Z,96054.44
2023-01-21T11:59:14.422Z,96196.50
2023-01-21T12:01:42.422Z,96051.72
2023-01-21T12:04:18.093Z,96194.72
2023-01-21T12:06:51.546Z,96187.94
2023-01-21T12:09:20.638Z,96188.13
2023-01-21T12:12:02.058Z,96180.19
2023-01-21T12:14:37.067Z,96184.34
2023-01-21T12:17:12.403Z,96176.59
2023-01-21T12:20:01.551Z,96176.19
2023-01-21T12:22:42.914Z,96148.69
2023-01-21T12:25:38.170Z,96173.81
2023-01-21T12:28:34.363Z,96170.81
2023-01-21T12:31:13.002Z,96169.03
2023-01-21T12:33:50.099Z,96170.41
2023-01-21T12:36:22.022Z,96161.66
2023-01-21T12:39:07.102Z,96172.59
2023-01-21T12:41:37.613Z,96192.72
2023-01-21T12:44:19.380Z,96167.22
2023-01-21T12:46:51.312Z,96099.91
2023-01-21T12:49:25.409Z,96168.63
2023-01-21T12:51:57.829Z,96166.63
2023-01-21T12:54:38.515Z,96091.91
2023-01-21T12:57:13.769Z,96137.34
2023-01-21T12:59:48.005Z,96166.81
2023-01-21T13:02:24.105Z,96105.09
2023-01-21T13:04:58.343Z,96162.66
2023-01-21T13:07:42.447Z,96076.81
2023-01-21T13:10:19.757Z,96168.41
2023-01-21T13:12:52.891Z,96150.09
2023-01-21T13:15:23.074Z,96163.25
2023-01-21T13:17:55.047Z,96175.00
2023-01-21T13:20:23.675Z,96179.41
2023-01-21T13:23:02.595Z,96175.00
2023-01-21T13:25:40.700Z,96171.41
2023-01-21T13:28:16.009Z,96163.66
2023-01-21T13:30:51.147Z,96117.81
2023-01-21T13:33:29.619Z,96148.91
2023-01-21T13:36:10.982Z,96169.63
2023-01-21T13:38:45.283Z,96166.03
2023-01-21T13:41:26.178Z,96188.53
2023-01-21T13:44:20.395Z,96187.53
2023-01-21T13:47:00.305Z,96196.72
2023-01-21T13:49:45.119Z,96201.31
2023-01-21T13:52:18.952Z,96173.22
2023-01-21T13:54:59.427Z,96191.53
2023-01-21T13:58:02.506Z,96199.88
2023-01-21T14:00:33.774Z,96198.31
2023-01-21T14:03:10.847Z,96204.06
2023-01-21T14:05:41.965Z,96199.88
2023-01-21T14:08:15.684Z,96046.88
2023-01-21T14:10:50.588Z,96137.88
2023-01-21T14:14:02.423Z,96196.09
2023-01-21T14:16:43.182Z,96185.75
2023-01-21T14:19:25.649Z,96204.66
2023-01-21T14:22:15.799Z,96192.50
2023-01-21T14:24:56.796Z,96182.75
2023-01-21T14:27:33.165Z,96210.22
2023-01-21T14:30:10.634Z,96185.31
2023-01-21T14:32:43.349Z,96207.06
2023-01-21T14:35:19.792Z,96111.78
2023-01-21T14:37:56.352Z,96211.03
2023-01-21T14:40:29.318Z,96219.59
2023-01-21T14:42:57.815Z,95998.25
2023-01-21T14:45:54.254Z,96118.16
2023-01-21T14:48:33.743Z,96216.00
2023-01-21T14:51:13.157Z,96221.41
2023-01-21T14:53:47.646Z,96223.41
2023-01-21T14:56:23.843Z,96137.47
2023-01-21T14:58:54.136Z,96202.63
2023-01-21T15:01:29.466Z,96132.88
2023-01-21T15:03:58.653Z,96227.34
2023-01-21T15:06:27.630Z,96195.66
2023-01-21T15:08:59.063Z,96218.22
2023-01-21T15:11:31.538Z,96213.00
2023-01-21T15:14:07.319Z,96220.97
2023-01-21T15:16:38.198Z,96086.22
2023-01-21T15:19:19.226Z,96229.16
2023-01-21T15:22:16.131Z,96227.94
2023-01-21T15:25:17.101Z,96230.94
2023-01-21T15:28:18.079Z,96232.75
2023-01-21T15:30:59.171Z,96232.13
2023-01-21T15:33:30.554Z,96133.88
2023-01-21T15:36:01.044Z,96238.69
2023-01-21T15:38:28.910Z,96239.28
2023-01-21T15:41:02.306Z,96234.72
2023-01-21T15:43:36.377Z,96237.31
2023-01-21T15:46:23.288Z,96234.53
2023-01-21T15:49:03.646Z,96199.66
2023-01-21T15:51:43.775Z,96248.28
2023-01-21T15:54:22.319Z,96238.06
2023-01-21T15:56:58.078Z,96267.50
2023-01-21T15:59:40.987Z,96252.78
2023-01-21T16:02:17.353Z,96277.94
2023-01-21T16:04:59.475Z,96171.88
2023-01-21T16:07:37.965Z,96158.72
2023-01-21T16:10:16.598Z,96176.34
2023-01-21T16:12:55.520Z,96229.44
2023-01-21T16:15:39.863Z,96237.63
2023-01-21T16:18:19.860Z,96266.13
2023-01-21T16:20:53.239Z,96167.63
2023-01-21T16:23:23.887Z,96244.97
2023-01-21T16:25:53.533Z,96241.34
2023-01-21T16:28:21.939Z,96252.16
2023-01-21T16:30:57.622Z,96252.75
2023-01-21T16:33:25.626Z,96126.13
2023-01-21T16:35:57.283Z,96228.72
2023-01-21T16:38:27.471Z,96272.28
2023-01-21T16:41:20.743Z,96019.41
2023-01-21T16:43:50.140Z,96276.69
2023-01-21T16:46:20.537Z,96277.28
2023-01-21T16:48:51.282Z,96233.22
2023-01-21T16:51:23.547Z,96210.81
2023-01-21T16:53:55.150Z,96279.47
2023-01-21T16:56:28.090Z,96283.47
2023-01-21T16:58:56.677Z,96282.47
2023-01-21T17:01:28.618Z,96206.81
2023-01-21T17:03:56.483Z,96115.81
2023-01-21T17:06:29.134Z,96197.50
2023-01-21T17:09:01.520Z,96263.25
2023-01-21T17:11:31.349Z,96256.63
2023-01-21T17:14:01.266Z,96292.81
2023-01-21T17:16:32.322Z,96161.25
2023-01-21T17:19:02.292Z,96298.97
2023-01-21T17:21:37.474Z,96278.16
2023-01-21T17:24:16.021Z,96274.00
2023-01-21T17:26:47.110Z,96282.13
2023-01-21T17:29:19.826Z,96065.03
2023-01-21T17:31:55.802Z,96280.94
2023-01-21T17:34:26.191Z,96307.31
2023-01-21T17:36:56.226Z,96329.75
2023-01-21T17:40:00.646Z,96273.31
2023-01-21T17:42:39.977Z,96327.75
2023-01-21T17:45:17.300Z,96311.22
2023-01-21T17:48:10.904Z,96300.47
2023-01-21T17:50:46.670Z,96318.38
2023-01-21T17:53:21.513Z,96275.28
2023-01-21T17:55:58.130Z,96322.75
2023-01-21T17:58:49.486Z,96287.34
2023-01-21T18:01:19.933Z,96322.34
2023-01-21T18:03:47.722Z,96323.38
2023-01-21T18:06:19.318Z,96302.16
2023-01-21T18:08:50.424Z,96045.78
2023-01-21T18:11:18.668Z,96314.31
2023-01-21T18:13:46.319Z,96320.66
2023-01-21T18:16:14.289Z,96325.66
2023-01-21T18:18:42.280Z,96146.59
2023-01-21T18:21:19.429Z,96318.31
2023-01-21T18:23:48.617Z,96177.38
2023-01-21T18:26:27.924Z,96300.91
2023-01-21T18:28:55.725Z,96330.09
2023-01-21T18:31:23.891Z,96326.59
2023-01-21T18:33:51.694Z,96188.09
2023-01-21T18:36:19.379Z,96329.44
2023-01-21T18:38:48.470Z,96154.91
2023-01-21T18:41:16.161Z,96351.53
2023-01-21T18:43:43.798Z,96328.41
2023-01-21T18:46:13.380Z,96295.81
2023-01-21T18:48:42.792Z,96297.78
2023-01-21T18:51:11.503Z,96342.28
2023-01-21T18:53:39.265Z,96254.59
2023-01-21T18:56:14.666Z,96337.72
2023-01-21T18:58:42.994Z,96314.94
2023-01-21T19:01:22.006Z,96179.16
2023-01-21T19:03:53.815Z,96312.81
2023-01-21T19:06:23.100Z,96291.84
2023-01-21T19:08:50.767Z,96219.34
2023-01-21T19:11:19.789Z,96326.56
2023-01-21T19:13:54.675Z,96168.84
2023-01-21T19:16:22.901Z,96362.63
2023-01-21T19:18:50.671Z,96348.41
2023-01-21T19:21:18.364Z,96346.84
2023-01-21T19:23:46.110Z,96137.97
2023-01-21T19:26:15.227Z,96341.47
2023-01-21T19:28:44.243Z,96201.84
2023-01-21T19:31:11.933Z,96333.50
2023-01-21T19:33:41.911Z,96210.78
2023-01-21T19:36:15.885Z,96318.03
2023-01-21T19:38:45.395Z,96325.28
2023-01-21T19:41:15.070Z,96340.88
2023-01-21T19:43:44.129Z,96260.94
2023-01-21T19:46:12.567Z,96162.63
2023-01-21T19:48:41.260Z,96341.38
2023-01-21T19:51:09.332Z,96331.81
2023-01-21T19:53:37.648Z,96340.44
2023-01-21T19:56:06.711Z,96349.19
2023-01-21T19:58:35.669Z,96303.16
2023-01-21T20:01:10.282Z,96293.28
2023-01-21T20:03:39.954Z,96356.38
2023-01-21T20:06:13.425Z,96352.38
2023-01-21T20:08:49.167Z,96342.19
2023-01-21T20:11:18.897Z,96352.97
2023-01-21T20:13:47.339Z,96354.91
2023-01-21T20:16:20.864Z,96338.38
2023-01-21T20:18:49.720Z,96352.09
2023-01-21T20:21:17.400Z,96354.91
2023-01-21T20:23:45.041Z,96360.13
2023-01-21T20:26:18.489Z,96358.19
2023-01-21T20:28:57.704Z,96361.72
2023-01-21T20:31:29.103Z,96363.91
2023-01-21T20:33:56.856Z,96359.78
2023-01-21T20:36:26.449Z,96357.56
2023-01-21T20:39:03.707Z,96336.72
2023-01-21T20:41:31.431Z,96359.09
2023-01-21T20:43:59.152Z,96284.44
2023-01-21T20:46:30.281Z,96359.34
2023-01-21T20:48:59.099Z,96185.03
2023-01-21T20:51:26.790Z,96276.38
2023-01-21T20:53:54.504Z,96339.09
2023-01-21T20:56:25.284Z,96349.41
2023-01-21T20:58:52.998Z,96325.16
2023-01-21T21:01:22.479Z,96352.53
2023-01-21T21:03:52.391Z,96348.16
2023-01-21T21:06:23.992Z,96357.50
2023-01-21T21:08:52.075Z,96257.09
2023-01-21T21:11:31.922Z,96390.13
2023-01-21T21:14:01.747Z,96301.75
2023-01-21T21:16:41.488Z,96357.50
2023-01-21T21:19:12.569Z,96351.94
2023-01-21T21:21:40.333Z,96188.47
2023-01-21T21:24:11.122Z,96177.16
2023-01-21T21:26:40.790Z,96274.84
2023-01-21T21:29:12.755Z,96280.94
2023-01-21T21:32:12.258Z,96361.41
2023-01-21T21:34:42.745Z,96254.94
2023-01-21T21:37:14.332Z,96214.84
2023-01-21T21:39:44.033Z,96332.16
2023-01-21T21:42:30.740Z,96334.56
2023-01-21T21:44:58.342Z,96368.44
2023-01-21T21:47:43.458Z,96362.81
2023-01-21T21:50:12.555Z,96358.38
2023-01-21T21:52:41.311Z,96363.72
2023-01-21T21:55:13.106Z,96357.09
2023-01-21T21:57:41.907Z,96270.84
2023-01-21T22:00:10.815Z,96136.31
2023-01-21T22:02:38.629Z,96211.31
2023-01-21T22:05:11.472Z,96363.25
2023-01-21T22:07:40.522Z,96252.97
2023-01-21T22:10:10.505Z,96343.25
2023-01-21T22:12:38.251Z,96264.06
2023-01-21T22:15:06.791Z,96361.53
2023-01-21T22:17:34.490Z,96343.59
2023-01-21T22:20:02.158Z,96352.06
2023-01-21T22:22:30.239Z,96366.63
2023-01-21T22:24:59.187Z,96356.25
2023-01-21T22:27:26.780Z,96302.19
2023-01-21T22:29:54.419Z,96358.66
2023-01-21T22:32:22.232Z,96345.34
2023-01-21T22:34:49.890Z,96274.34
2023-01-21T22:37:17.489Z,96353.22
2023-01-21T22:39:45.119Z,96250.00
2023-01-21T22:42:14.119Z,96292.53
2023-01-21T22:44:41.748Z,96348.34
2023-01-21T22:47:09.376Z,96348.09
2023-01-21T22:49:37.146Z,96347.81
2023-01-21T22:52:05.063Z,96359.16
2023-01-21T22:54:32.665Z,96303.63
2023-01-21T22:57:00.293Z,96342.75
2023-01-21T22:59:29.254Z,96190.06
2023-01-21T23:01:57.208Z,96345.94
2023-01-21T23:04:24.819Z,96343.19
2023-01-21T23:06:54.985Z,96345.72
2023-01-21T23:09:22.887Z,96344.72
2023-01-21T23:11:52.513Z,96349.13
2023-01-21T23:14:20.423Z,96344.19
2023-01-21T23:16:49.375Z,96220.34
2023-01-21T23:19:16.989Z,96340.34
2023-01-21T23:21:44.630Z,96337.75
2023-01-21T23:24:12.307Z,96345.13
2023-01-21T23:26:39.911Z,96185.34
2023-01-21T23:29:07.524Z,96345.38
2023-01-21T23:31:35.264Z,96341.91
2023-01-21T23:34:04.340Z,96341.72
2023-01-21T23:36:31.992Z,96308.97
2023-01-21T23:38:59.697Z,96338.75
2023-01-21T23:41:27.757Z,96334.19
2023-01-21T23:43:55.406Z,96338.16
2023-01-21T23:46:23.038Z,96315.22
2023-01-21T23:48:50.662Z,96328.41
2023-01-21T23:51:20.015Z,96326.03
2023-01-21T23:53:48.937Z,96329.28
2023-01-21T23:56:18.208Z,96307.53
2023-01-21T23:58:46.752Z,96175.75
